Rodovre, Denmark
Current Conditions -  °F | °C
As of 4:50 PM on Thursday 30 Oct 2014 (Local Time) from EKCH Reporting Station
Broken Clouds Broken Clouds  
Wind Chill: 48°   Ceiling: 25000
Heat Index: 48°   Visibility: 6mi
Dew Point: 39°   Wind: 3mph
Humidity: 71%   Direction: 280°W
Pressure: 30.27"   Gusts: NA
Location:  55.68°N, 12.45°E
Report Text: EKCH 301550Z 28003KT 9999 FEW025 BKN250 09/04 Q1025 NOSIG
Loading
Personal Weather Stations






























Interactive Weather Map
Tropical Storm Tracking
New forecast layout! Learn more

10-Day Weather Forecast

Advertisements
Track Severe Weather on mobile